sensor_id;sensor_type;location;lat;lon;timestamp;pressure;altitude;pressure_sealevel;temperature;humidity
39954;BME280;25631;51.516;-0.470;2022-12-29T00:02:33;99231.41;;;6.12;45.07
39954;BME280;25631;51.516;-0.470;2022-12-29T00:05:09;99227.31;;;6.70;44.77
39954;BME280;25631;51.516;-0.470;2022-12-29T00:07:46;99231.66;;;6.44;44.85
39954;BME280;25631;51.516;-0.470;2022-12-29T00:10:23;99231.12;;;6.12;45.05
39954;BME280;25631;51.516;-0.470;2022-12-29T00:12:59;99215.21;;;5.73;45.26
39954;BME280;25631;51.516;-0.470;2022-12-29T00:15:36;99213.11;;;6.02;44.96
39954;BME280;25631;51.516;-0.470;2022-12-29T00:18:12;99220.12;;;6.45;44.58
39954;BME280;25631;51.516;-0.470;2022-12-29T00:20:49;99221.37;;;5.87;44.74
39954;BME280;25631;51.516;-0.470;2022-12-29T00:23:26;99213.37;;;5.87;45.04
39954;BME280;25631;51.516;-0.470;2022-12-29T00:26:03;99201.71;;;6.14;44.81
39954;BME280;25631;51.516;-0.470;2022-12-29T00:28:40;99208.79;;;6.67;44.36
39954;BME280;25631;51.516;-0.470;2022-12-29T00:31:16;99204.90;;;6.61;44.16
39954;BME280;25631;51.516;-0.470;2022-12-29T00:33:53;99206.41;;;6.34;44.09
39954;BME280;25631;51.516;-0.470;2022-12-29T00:36:32;99210.10;;;6.62;43.84
39954;BME280;25631;51.516;-0.470;2022-12-29T00:39:15;99211.18;;;7.01;43.57
39954;BME280;25631;51.516;-0.470;2022-12-29T00:41:53;99214.05;;;6.64;43.61
39954;BME280;25631;51.516;-0.470;2022-12-29T00:44:29;99218.57;;;6.43;43.62
39954;BME280;25631;51.516;-0.470;2022-12-29T00:47:06;99217.09;;;6.71;43.70
39954;BME280;25631;51.516;-0.470;2022-12-29T00:49:42;99217.72;;;6.50;43.60
39954;BME280;25631;51.516;-0.470;2022-12-29T00:52:19;99209.01;;;6.87;43.30
39954;BME280;25631;51.516;-0.470;2022-12-29T00:54:55;99210.67;;;6.70;43.45
39954;BME280;25631;51.516;-0.470;2022-12-29T00:57:32;99208.12;;;6.61;43.48
39954;BME280;25631;51.516;-0.470;2022-12-29T01:00:10;99214.23;;;6.64;43.38
39954;BME280;25631;51.516;-0.470;2022-12-29T01:02:46;99204.55;;;6.62;43.57
39954;BME280;25631;51.516;-0.470;2022-12-29T01:05:23;99204.17;;;6.32;43.62
39954;BME280;25631;51.516;-0.470;2022-12-29T01:07:59;99206.45;;;6.20;43.97
39954;BME280;25631;51.516;-0.470;2022-12-29T01:10:37;99195.70;;;6.73;43.59
39954;BME280;25631;51.516;-0.470;2022-12-29T01:13:13;99187.38;;;6.14;43.89
39954;BME280;25631;51.516;-0.470;2022-12-29T01:15:50;99176.60;;;5.81;44.18
39954;BME280;25631;51.516;-0.470;2022-12-29T01:18:27;99183.93;;;6.27;43.61
39954;BME280;25631;51.516;-0.470;2022-12-29T01:21:05;99172.13;;;6.67;43.26
39954;BME280;25631;51.516;-0.470;2022-12-29T01:23:42;99170.21;;;6.58;42.86
39954;BME280;25631;51.516;-0.470;2022-12-29T01:26:19;99180.20;;;6.56;42.53
39954;BME280;25631;51.516;-0.470;2022-12-29T01:28:55;99179.77;;;6.36;42.47
39954;BME280;25631;51.516;-0.470;2022-12-29T01:31:32;99178.99;;;6.45;41.83
39954;BME280;25631;51.516;-0.470;2022-12-29T01:34:08;99193.60;;;6.22;41.75
39954;BME280;25631;51.516;-0.470;2022-12-29T01:36:45;99181.15;;;6.37;41.28
39954;BME280;25631;51.516;-0.470;2022-12-29T01:39:22;99191.63;;;6.32;41.27
39954;BME280;25631;51.516;-0.470;2022-12-29T01:41:58;99186.82;;;5.69;41.91
39954;BME280;25631;51.516;-0.470;2022-12-29T01:44:53;99190.13;;;5.87;42.02
39954;BME280;25631;51.516;-0.470;2022-12-29T01:47:34;99194.96;;;6.07;41.81
39954;BME280;25631;51.516;-0.470;2022-12-29T01:50:18;99204.94;;;5.75;41.99
39954;BME280;25631;51.516;-0.470;2022-12-29T01:52:59;99186.61;;;5.92;42.43
39954;BME280;25631;51.516;-0.470;2022-12-29T01:55:39;99190.25;;;5.56;42.66
39954;BME280;25631;51.516;-0.470;2022-12-29T01:58:18;99192.49;;;6.27;42.56
39954;BME280;25631;51.516;-0.470;2022-12-29T02:00:56;99199.05;;;6.28;42.53
39954;BME280;25631;51.516;-0.470;2022-12-29T02:03:33;99202.55;;;6.51;42.54
39954;BME280;25631;51.516;-0.470;2022-12-29T02:06:14;99199.82;;;6.25;42.40
39954;BME280;25631;51.516;-0.470;2022-12-29T02:08:55;99197.39;;;6.11;42.45
39954;BME280;25631;51.516;-0.470;2022-12-29T02:11:34;99202.38;;;6.05;42.21
39954;BME280;25631;51.516;-0.470;2022-12-29T02:14:12;99193.46;;;6.22;42.29
39954;BME280;25631;51.516;-0.470;2022-12-29T02:17:00;99193.48;;;6.26;41.90
39954;BME280;25631;51.516;-0.470;2022-12-29T02:20:07;99187.29;;;5.96;41.73
39954;BME280;25631;51.516;-0.470;2022-12-29T02:22:55;99196.64;;;5.78;41.57
39954;BME280;25631;51.516;-0.470;2022-12-29T02:26:20;99201.63;;;5.62;41.75
39954;BME280;25631;51.516;-0.470;2022-12-29T02:31:33;99209.67;;;5.96;41.40
39954;BME280;25631;51.516;-0.470;2022-12-29T02:34:22;99213.86;;;5.87;41.80
39954;BME280;25631;51.516;-0.470;2022-12-29T02:37:04;99214.28;;;5.82;41.87
39954;BME280;25631;51.516;-0.470;2022-12-29T02:39:49;99211.13;;;5.84;41.85
39954;BME280;25631;51.516;-0.470;2022-12-29T02:42:32;99212.61;;;6.37;41.81
39954;BME280;25631;51.516;-0.470;2022-12-29T02:45:13;99216.31;;;6.06;41.99
39954;BME280;25631;51.516;-0.470;2022-12-29T02:47:56;99211.45;;;5.96;42.03
39954;BME280;25631;51.516;-0.470;2022-12-29T02:50:36;99214.30;;;5.82;41.99
39954;BME280;25631;51.516;-0.470;2022-12-29T02:53:16;99218.88;;;5.90;42.07
39954;BME280;25631;51.516;-0.470;2022-12-29T02:55:53;99213.53;;;6.07;42.06
39954;BME280;25631;51.516;-0.470;2022-12-29T02:58:30;99213.60;;;6.45;42.04
39954;BME280;25631;51.516;-0.470;2022-12-29T03:01:19;99214.46;;;6.24;42.33
39954;BME280;25631;51.516;-0.470;2022-12-29T03:04:10;99208.69;;;6.52;42.01
39954;BME280;25631;51.516;-0.470;2022-12-29T03:06:56;99213.11;;;5.52;42.45
39954;BME280;25631;51.516;-0.470;2022-12-29T03:09:39;99213.49;;;5.83;42.47
39954;BME280;25631;51.516;-0.470;2022-12-29T03:12:25;99194.64;;;6.06;42.03
39954;BME280;25631;51.516;-0.470;2022-12-29T03:15:10;99192.16;;;5.72;42.57
39954;BME280;25631;51.516;-0.470;2022-12-29T03:17:54;99195.13;;;5.73;42.75
39954;BME280;25631;51.516;-0.470;2022-12-29T03:20:36;99202.67;;;6.04;42.36
39954;BME280;25631;51.516;-0.470;2022-12-29T03:23:16;99203.09;;;5.77;42.46
39954;BME280;25631;51.516;-0.470;2022-12-29T03:25:55;99207.91;;;6.24;42.36
39954;BME280;25631;51.516;-0.470;2022-12-29T03:28:35;99196.13;;;6.48;41.81
39954;BME280;25631;51.516;-0.470;2022-12-29T03:31:14;99210.87;;;6.65;41.91
39954;BME280;25631;51.516;-0.470;2022-12-29T03:33:53;99207.45;;;6.84;41.63
39954;BME280;25631;51.516;-0.470;2022-12-29T03:36:39;99200.99;;;6.72;41.44
39954;BME280;25631;51.516;-0.470;2022-12-29T03:39:21;99196.25;;;6.86;41.47
39954;BME280;25631;51.516;-0.470;2022-12-29T03:42:02;99196.14;;;6.76;41.55
39954;BME280;25631;51.516;-0.470;2022-12-29T03:44:44;99191.22;;;6.51;41.53
39954;BME280;25631;51.516;-0.470;2022-12-29T03:47:22;99191.95;;;7.04;41.33
39954;BME280;25631;51.516;-0.470;2022-12-29T03:49:59;99207.78;;;6.27;42.04
39954;BME280;25631;51.516;-0.470;2022-12-29T03:52:35;99202.15;;;6.59;41.88
39954;BME280;25631;51.516;-0.470;2022-12-29T03:55:12;99215.25;;;6.91;42.29
39954;BME280;25631;51.516;-0.470;2022-12-29T03:57:49;99209.69;;;6.32;43.36
39954;BME280;25631;51.516;-0.470;2022-12-29T04:00:25;99220.55;;;6.33;43.75
39954;BME280;25631;51.516;-0.470;2022-12-29T04:03:02;99211.58;;;5.69;44.73
39954;BME280;25631;51.516;-0.470;2022-12-29T04:05:38;99209.62;;;5.75;45.20
39954;BME280;25631;51.516;-0.470;2022-12-29T04:08:15;99197.49;;;6.07;45.28
39954;BME280;25631;51.516;-0.470;2022-12-29T04:10:51;99194.02;;;6.24;45.24
39954;BME280;25631;51.516;-0.470;2022-12-29T04:13:28;99191.15;;;6.47;45.02
39954;BME280;25631;51.516;-0.470;2022-12-29T04:16:05;99199.88;;;6.39;44.50
39954;BME280;25631;51.516;-0.470;2022-12-29T04:18:41;99188.97;;;6.83;43.98
39954;BME280;25631;51.516;-0.470;2022-12-29T04:21:18;99202.16;;;6.27;43.92
39954;BME280;25631;51.516;-0.470;2022-12-29T04:23:54;99201.43;;;5.94;44.30
39954;BME280;25631;51.516;-0.470;2022-12-29T04:26:31;99196.24;;;6.39;43.70
39954;BME280;25631;51.516;-0.470;2022-12-29T04:29:07;99197.01;;;6.27;43.84
39954;BME280;25631;51.516;-0.470;2022-12-29T04:31:44;99210.00;;;6.02;43.77
39954;BME280;25631;51.516;-0.470;2022-12-29T04:34:21;99219.38;;;5.69;44.26
39954;BME280;25631;51.516;-0.470;2022-12-29T04:36:58;99221.05;;;6.64;43.38
39954;BME280;25631;51.516;-0.470;2022-12-29T04:39:34;99210.99;;;5.98;43.86
39954;BME280;25631;51.516;-0.470;2022-12-29T04:42:11;99220.34;;;6.67;43.45
39954;BME280;25631;51.516;-0.470;2022-12-29T04:44:47;99240.92;;;6.65;43.55
39954;BME280;25631;51.516;-0.470;2022-12-29T04:47:24;99231.14;;;6.43;43.62
39954;BME280;25631;51.516;-0.470;2022-12-29T04:50:01;99239.15;;;6.01;43.96
39954;BME280;25631;51.516;-0.470;2022-12-29T04:52:37;99237.05;;;6.88;43.52
39954;BME280;25631;51.516;-0.470;2022-12-29T04:55:13;99249.05;;;5.89;44.18
39954;BME280;25631;51.516;-0.470;2022-12-29T04:57:50;99257.49;;;6.56;44.06
39954;BME280;25631;51.516;-0.470;2022-12-29T05:00:26;99266.35;;;6.95;43.65
39954;BME280;25631;51.516;-0.470;2022-12-29T05:03:03;99268.79;;;6.01;44.49
39954;BME280;25631;51.516;-0.470;2022-12-29T05:05:40;99278.99;;;6.06;44.55
39954;BME280;25631;51.516;-0.470;2022-12-29T05:08:17;99294.69;;;6.96;43.68
39954;BME280;25631;51.516;-0.470;2022-12-29T05:10:54;99288.21;;;6.70;43.77
39954;BME280;25631;51.516;-0.470;2022-12-29T05:13:30;99296.31;;;6.87;43.69
39954;BME280;25631;51.516;-0.470;2022-12-29T05:16:07;99309.29;;;6.59;43.74
39954;BME280;25631;51.516;-0.470;2022-12-29T05:18:43;99311.92;;;6.93;43.45
39954;BME280;25631;51.516;-0.470;2022-12-29T05:21:20;99328.76;;;7.27;43.26
39954;BME280;25631;51.516;-0.470;2022-12-29T05:23:56;99341.21;;;6.75;43.48
39954;BME280;25631;51.516;-0.470;2022-12-29T05:26:33;99348.47;;;6.49;43.61
39954;BME280;25631;51.516;-0.470;2022-12-29T05:29:09;99358.60;;;7.06;43.12
39954;BME280;25631;51.516;-0.470;2022-12-29T05:31:45;99359.50;;;7.05;43.06
39954;BME280;25631;51.516;-0.470;2022-12-29T05:34:22;99376.19;;;6.87;42.69
39954;BME280;25631;51.516;-0.470;2022-12-29T05:36:58;99376.58;;;7.39;42.15
39954;BME280;25631;51.516;-0.470;2022-12-29T05:39:35;99385.64;;;7.05;41.97
39954;BME280;25631;51.516;-0.470;2022-12-29T05:42:12;99402.56;;;6.63;42.19
39954;BME280;25631;51.516;-0.470;2022-12-29T05:44:48;99399.27;;;6.75;41.92
39954;BME280;25631;51.516;-0.470;2022-12-29T05:47:25;99408.89;;;6.53;41.44
39954;BME280;25631;51.516;-0.470;2022-12-29T05:50:01;99424.12;;;6.77;41.59
39954;BME280;25631;51.516;-0.470;2022-12-29T05:52:38;99427.53;;;6.91;41.64
39954;BME280;25631;51.516;-0.470;2022-12-29T05:55:14;99429.52;;;6.72;41.66
39954;BME280;25631;51.516;-0.470;2022-12-29T05:57:51;99442.96;;;6.86;41.50
39954;BME280;25631;51.516;-0.470;2022-12-29T06:00:27;99448.77;;;6.77;41.42
39954;BME280;25631;51.516;-0.470;2022-12-29T06:03:04;99460.93;;;6.54;41.35
39954;BME280;25631;51.516;-0.470;2022-12-29T06:05:40;99468.44;;;6.58;41.59
39954;BME280;25631;51.516;-0.470;2022-12-29T06:08:16;99477.04;;;6.83;41.65
39954;BME280;25631;51.516;-0.470;2022-12-29T06:10:53;99477.04;;;6.47;41.80
39954;BME280;25631;51.516;-0.470;2022-12-29T06:13:29;99489.23;;;6.46;41.89
39954;BME280;25631;51.516;-0.470;2022-12-29T06:16:07;99491.12;;;6.59;41.93
39954;BME280;25631;51.516;-0.470;2022-12-29T06:18:43;99495.03;;;6.23;42.16
39954;BME280;25631;51.516;-0.470;2022-12-29T06:21:20;99512.65;;;6.54;42.14
39954;BME280;25631;51.516;-0.470;2022-12-29T06:23:56;99515.99;;;6.50;42.21
39954;BME280;25631;51.516;-0.470;2022-12-29T06:26:33;99516.48;;;6.09;42.37
39954;BME280;25631;51.516;-0.470;2022-12-29T06:29:09;99519.78;;;6.27;42.32
39954;BME280;25631;51.516;-0.470;2022-12-29T06:31:46;99518.54;;;6.17;42.57
39954;BME280;25631;51.516;-0.470;2022-12-29T06:34:23;99521.54;;;5.90;42.71
39954;BME280;25631;51.516;-0.470;2022-12-29T06:36:59;99534.73;;;6.22;42.44
39954;BME280;25631;51.516;-0.470;2022-12-29T06:39:36;99543.30;;;6.09;42.59
39954;BME280;25631;51.516;-0.470;2022-12-29T06:42:12;99551.08;;;6.47;42.26
39954;BME280;25631;51.516;-0.470;2022-12-29T06:44:49;99550.06;;;6.30;42.43
39954;BME280;25631;51.516;-0.470;2022-12-29T06:47:25;99551.81;;;5.80;42.57
39954;BME280;25631;51.516;-0.470;2022-12-29T06:50:03;99559.81;;;5.69;42.93
39954;BME280;25631;51.516;-0.470;2022-12-29T06:52:40;99559.55;;;6.00;42.45
39954;BME280;25631;51.516;-0.470;2022-12-29T06:55:17;99567.90;;;6.33;42.37
39954;BME280;25631;51.516;-0.470;2022-12-29T06:57:54;99572.24;;;6.10;42.40
39954;BME280;25631;51.516;-0.470;2022-12-29T07:00:31;99575.89;;;5.74;42.22
39954;BME280;25631;51.516;-0.470;2022-12-29T07:03:07;99581.55;;;6.15;42.06
39954;BME280;25631;51.516;-0.470;2022-12-29T07:05:44;99590.69;;;6.49;41.88
39954;BME280;25631;51.516;-0.470;2022-12-29T07:08:20;99591.09;;;6.25;41.90
39954;BME280;25631;51.516;-0.470;2022-12-29T07:10:57;99602.36;;;6.31;41.76
39954;BME280;25631;51.516;-0.470;2022-12-29T07:13:34;99593.04;;;6.10;41.74
39954;BME280;25631;51.516;-0.470;2022-12-29T07:16:11;99601.60;;;6.30;41.78
39954;BME280;25631;51.516;-0.470;2022-12-29T07:18:47;99601.57;;;6.26;41.89
39954;BME280;25631;51.516;-0.470;2022-12-29T07:21:24;99605.98;;;6.45;41.77
39954;BME280;25631;51.516;-0.470;2022-12-29T07:24:00;99604.80;;;5.95;41.91
39954;BME280;25631;51.516;-0.470;2022-12-29T07:26:36;99613.28;;;6.15;42.18
39954;BME280;25631;51.516;-0.470;2022-12-29T07:29:13;99618.48;;;5.96;42.54
39954;BME280;25631;51.516;-0.470;2022-12-29T07:31:49;99621.59;;;5.70;42.41
39954;BME280;25631;51.516;-0.470;2022-12-29T07:34:26;99618.34;;;5.99;42.48
39954;BME280;25631;51.516;-0.470;2022-12-29T07:37:02;99628.06;;;5.99;42.27
39954;BME280;25631;51.516;-0.470;2022-12-29T07:39:39;99621.18;;;5.88;42.39
39954;BME280;25631;51.516;-0.470;2022-12-29T07:42:15;99628.27;;;6.18;42.21
39954;BME280;25631;51.516;-0.470;2022-12-29T07:44:52;99635.95;;;5.83;42.20
39954;BME280;25631;51.516;-0.470;2022-12-29T07:47:28;99642.30;;;5.68;42.09
39954;BME280;25631;51.516;-0.470;2022-12-29T07:50:06;99647.76;;;5.95;42.01
39954;BME280;25631;51.516;-0.470;2022-12-29T07:52:42;99654.69;;;5.65;42.24
39954;BME280;25631;51.516;-0.470;2022-12-29T07:55:19;99660.06;;;5.86;42.41
39954;BME280;25631;51.516;-0.470;2022-12-29T07:57:56;99665.34;;;6.04;42.31
39954;BME280;25631;51.516;-0.470;2022-12-29T08:00:33;99672.95;;;5.99;42.60
39954;BME280;25631;51.516;-0.470;2022-12-29T08:03:09;99677.25;;;5.80;42.73
39954;BME280;25631;51.516;-0.470;2022-12-29T08:05:46;99680.91;;;5.57;43.21
39954;BME280;25631;51.516;-0.470;2022-12-29T08:08:23;99680.95;;;5.54;43.23
39954;BME280;25631;51.516;-0.470;2022-12-29T08:10:59;99701.15;;;5.25;43.82
39954;BME280;25631;51.516;-0.470;2022-12-29T08:13:36;99708.71;;;5.46;43.63
39954;BME280;25631;51.516;-0.470;2022-12-29T08:16:12;99713.50;;;5.61;43.76
39954;BME280;25631;51.516;-0.470;2022-12-29T08:18:48;99717.27;;;5.71;43.59
39954;BME280;25631;51.516;-0.470;2022-12-29T08:21:26;99720.31;;;5.60;43.82
39954;BME280;25631;51.516;-0.470;2022-12-29T08:24:03;99729.90;;;5.42;44.03
39954;BME280;25631;51.516;-0.470;2022-12-29T08:26:39;99737.06;;;5.16;44.30
39954;BME280;25631;51.516;-0.470;2022-12-29T08:29:16;99734.47;;;5.22;44.60
39954;BME280;25631;51.516;-0.470;2022-12-29T08:31:53;99743.94;;;5.40;44.36
39954;BME280;25631;51.516;-0.470;2022-12-29T08:34:31;99748.59;;;5.66;44.07
39954;BME280;25631;51.516;-0.470;2022-12-29T08:37:08;99755.96;;;5.42;43.94
39954;BME280;25631;51.516;-0.470;2022-12-29T08:39:45;99758.34;;;5.68;44.13
39954;BME280;25631;51.516;-0.470;2022-12-29T08:42:22;99760.95;;;5.60;44.14
39954;BME280;25631;51.516;-0.470;2022-12-29T08:44:59;99769.48;;;5.85;44.03
39954;BME280;25631;51.516;-0.470;2022-12-29T08:47:36;99773.97;;;5.97;43.85
39954;BME280;25631;51.516;-0.470;2022-12-29T08:50:13;99777.88;;;5.65;44.00
39954;BME280;25631;51.516;-0.470;2022-12-29T08:52:50;99782.17;;;6.12;43.92
39954;BME280;25631;51.516;-0.470;2022-12-29T08:55:26;99784.62;;;6.07;43.88
39954;BME280;25631;51.516;-0.470;2022-12-29T08:58:03;99791.71;;;5.91;43.97
39954;BME280;25631;51.516;-0.470;2022-12-29T09:00:40;99792.28;;;5.56;44.14
39954;BME280;25631;51.516;-0.470;2022-12-29T09:03:16;99790.18;;;6.06;43.94
39954;BME280;25631;51.516;-0.470;2022-12-29T09:05:54;99789.44;;;6.18;43.80
39954;BME280;25631;51.516;-0.470;2022-12-29T09:08:31;99795.29;;;6.33;43.64
39954;BME280;25631;51.516;-0.470;2022-12-29T09:11:09;99796.10;;;6.24;43.61
39954;BME280;25631;51.516;-0.470;2022-12-29T09:13:47;99798.36;;;5.85;43.70
39954;BME280;25631;51.516;-0.470;2022-12-29T09:16:24;99799.90;;;6.24;43.61
39954;BME280;25631;51.516;-0.470;2022-12-29T09:19:00;99800.76;;;6.39;43.57
39954;BME280;25631;51.516;-0.470;2022-12-29T09:21:37;99803.93;;;6.03;43.61
39954;BME280;25631;51.516;-0.470;2022-12-29T09:24:14;99803.37;;;6.56;43.28
39954;BME280;25631;51.516;-0.470;2022-12-29T09:26:51;99802.77;;;6.40;43.31
39954;BME280;25631;51.516;-0.470;2022-12-29T09:29:27;99803.33;;;6.28;43.08
39954;BME280;25631;51.516;-0.470;2022-12-29T09:32:04;99806.41;;;6.30;42.95
39954;BME280;25631;51.516;-0.470;2022-12-29T09:34:41;99820.65;;;6.06;42.93
39954;BME280;25631;51.516;-0.470;2022-12-29T09:37:17;99820.36;;;6.04;42.79
39954;BME280;25631;51.516;-0.470;2022-12-29T09:39:54;99821.69;;;6.50;42.82
39954;BME280;25631;51.516;-0.470;2022-12-29T09:42:37;99825.53;;;6.15;42.48
39954;BME280;25631;51.516;-0.470;2022-12-29T09:45:17;99836.58;;;6.18;42.36
39954;BME280;25631;51.516;-0.470;2022-12-29T09:47:55;99841.10;;;5.80;42.65
39954;BME280;25631;51.516;-0.470;2022-12-29T09:50:34;99856.72;;;5.74;42.49
39954;BME280;25631;51.516;-0.470;2022-12-29T09:53:15;99856.73;;;6.13;42.18
39954;BME280;25631;51.516;-0.470;2022-12-29T09:55:57;99865.10;;;5.96;42.35
39954;BME280;25631;51.516;-0.470;2022-12-29T09:58:37;99868.74;;;6.20;42.15
39954;BME280;25631;51.516;-0.470;2022-12-29T10:01:24;99872.35;;;6.38;42.13
39954;BME280;25631;51.516;-0.470;2022-12-29T10:04:03;99878.85;;;6.38;42.24
39954;BME280;25631;51.516;-0.470;2022-12-29T10:06:44;99885.39;;;6.42;41.96
39954;BME280;25631;51.516;-0.470;2022-12-29T10:09:26;99886.29;;;6.11;42.08
39954;BME280;25631;51.516;-0.470;2022-12-29T10:12:27;99896.81;;;6.42;41.98
39954;BME280;25631;51.516;-0.470;2022-12-29T10:15:17;99906.90;;;6.69;41.86
39954;BME280;25631;51.516;-0.470;2022-12-29T10:18:11;99906.97;;;6.29;41.65
39954;BME280;25631;51.516;-0.470;2022-12-29T10:20:59;99909.59;;;6.19;41.79
39954;BME280;25631;51.516;-0.470;2022-12-29T10:23:45;99915.04;;;6.46;42.11
39954;BME280;25631;51.516;-0.470;2022-12-29T10:26:27;99919.38;;;6.39;42.29
39954;BME280;25631;51.516;-0.470;2022-12-29T10:29:06;99918.67;;;6.71;41.96
39954;BME280;25631;51.516;-0.470;2022-12-29T10:31:44;99927.76;;;6.54;41.97
39954;BME280;25631;51.516;-0.470;2022-12-29T10:34:25;99927.35;;;5.99;41.84
39954;BME280;25631;51.516;-0.470;2022-12-29T10:37:09;99925.80;;;6.13;41.72
39954;BME280;25631;51.516;-0.470;2022-12-29T10:39:52;99930.80;;;6.31;41.49
39954;BME280;25631;51.516;-0.470;2022-12-29T10:42:34;99934.02;;;6.71;41.43
39954;BME280;25631;51.516;-0.470;2022-12-29T10:45:14;99930.49;;;6.67;41.51
39954;BME280;25631;51.516;-0.470;2022-12-29T10:47:57;99932.17;;;5.97;41.70
39954;BME280;25631;51.516;-0.470;2022-12-29T10:50:36;99939.00;;;6.08;41.65
39954;BME280;25631;51.516;-0.470;2022-12-29T10:53:18;99945.74;;;6.21;41.68
39954;BME280;25631;51.516;-0.470;2022-12-29T10:55:55;99952.67;;;6.21;41.64
39954;BME280;25631;51.516;-0.470;2022-12-29T10:58:32;99962.13;;;6.25;41.91
39954;BME280;25631;51.516;-0.470;2022-12-29T11:01:12;99967.20;;;6.25;41.48
39954;BME280;25631;51.516;-0.470;2022-12-29T11:03:58;99974.97;;;6.20;41.38
39954;BME280;25631;51.516;-0.470;2022-12-29T11:06:39;99964.81;;;5.76;41.36
39954;BME280;25631;51.516;-0.470;2022-12-29T11:09:21;99965.94;;;6.57;41.21
39954;BME280;25631;51.516;-0.470;2022-12-29T11:12:00;99972.49;;;6.28;41.07
39954;BME280;25631;51.516;-0.470;2022-12-29T11:14:36;99971.27;;;6.32;40.99
39954;BME280;25631;51.516;-0.470;2022-12-29T11:17:15;99977.93;;;5.91;41.16
39954;BME280;25631;51.516;-0.470;2022-12-29T11:19:53;99977.57;;;5.79;41.22
39954;BME280;25631;51.516;-0.470;2022-12-29T11:22:30;99974.74;;;6.02;40.82
39954;BME280;25631;51.516;-0.470;2022-12-29T11:25:12;99980.76;;;6.57;40.71
39954;BME280;25631;51.516;-0.470;2022-12-29T11:27:55;99992.10;;;6.26;40.54
39954;BME280;25631;51.516;-0.470;2022-12-29T11:30:32;99985.77;;;6.03;40.29
39954;BME280;25631;51.516;-0.470;2022-12-29T11:33:09;99980.04;;;6.15;40.15
39954;BME280;25631;51.516;-0.470;2022-12-29T11:35:46;99986.74;;;6.45;40.09
39954;BME280;25631;51.516;-0.470;2022-12-29T11:38:28;99984.85;;;6.33;39.84
39954;BME280;25631;51.516;-0.470;2022-12-29T11:41:12;99989.16;;;5.94;39.82
39954;BME280;25631;51.516;-0.470;2022-12-29T11:43:49;99990.75;;;6.46;39.49
39954;BME280;25631;51.516;-0.470;2022-12-29T11:46:30;99996.99;;;6.36;39.42
39954;BME280;25631;51.516;-0.470;2022-12-29T11:49:13;99999.66;;;6.47;39.52
39954;BME280;25631;51.516;-0.470;2022-12-29T11:51:51;100003.21;;;6.47;39.46
39954;BME280;25631;51.516;-0.470;2022-12-29T11:54:31;100002.56;;;6.06;39.45
39954;BME280;25631;51.516;-0.470;2022-12-29T11:57:11;99994.16;;;6.06;39.40
39954;BME280;25631;51.516;-0.470;2022-12-29T11:59:50;99999.68;;;6.42;39.20
39954;BME280;25631;51.516;-0.470;2022-12-29T12:02:35;100011.80;;;6.49;39.08
39954;BME280;25631;51.516;-0.470;2022-12-29T12:05:20;100012.91;;;6.30;39.48
39954;BME280;25631;51.516;-0.470;2022-12-29T12:08:04;100015.62;;;6.34;39.48
39954;BME280;25631;51.516;-0.470;2022-12-29T12:10:48;100012.49;;;6.54;39.29
39954;BME280;25631;51.516;-0.470;2022-12-29T12:13:33;100016.84;;;6.60;39.11
39954;BME280;25631;51.516;-0.470;2022-12-29T12:16:15;100016.57;;;6.93;38.83
39954;BME280;25631;51.516;-0.470;2022-12-29T12:18:56;100024.19;;;6.44;38.48
39954;BME280;25631;51.516;-0.470;2022-12-29T12:21:39;100032.87;;;6.65;38.36
39954;BME280;25631;51.516;-0.470;2022-12-29T12:24:27;100021.82;;;6.66;38.17
39954;BME280;25631;51.516;-0.470;2022-12-29T12:27:13;100022.92;;;6.88;38.49
39954;BME280;25631;51.516;-0.470;2022-12-29T12:29:59;100018.80;;;6.11;38.31
39954;BME280;25631;51.516;-0.470;2022-12-29T12:32:44;100018.45;;;6.32;38.40
39954;BME280;25631;51.516;-0.470;2022-12-29T12:35:29;100017.89;;;6.54;38.17
39954;BME280;25631;51.516;-0.470;2022-12-29T12:38:22;100024.06;;;6.62;37.98
39954;BME280;25631;51.516;-0.470;2022-12-29T12:41:08;100019.27;;;6.26;37.92
39954;BME280;25631;51.516;-0.470;2022-12-29T12:43:50;100028.58;;;6.49;37.61
39954;BME280;25631;51.516;-0.470;2022-12-29T12:46:47;100025.78;;;6.91;37.66
39954;BME280;25631;51.516;-0.470;2022-12-29T12:49:40;100024.80;;;6.76;37.72
39954;BME280;25631;51.516;-0.470;2022-12-29T12:52:24;100027.58;;;6.65;37.62
39954;BME280;25631;51.516;-0.470;2022-12-29T12:55:22;100023.18;;;6.68;37.54
39954;BME280;25631;51.516;-0.470;2022-12-29T12:58:11;100031.24;;;6.78;37.57
39954;BME280;25631;51.516;-0.470;2022-12-29T13:01:02;100030.12;;;6.35;37.76
39954;BME280;25631;51.516;-0.470;2022-12-29T13:03:55;100041.94;;;5.54;38.22
39954;BME280;25631;51.516;-0.470;2022-12-29T13:06:43;100032.88;;;6.43;37.55
39954;BME280;25631;51.516;-0.470;2022-12-29T13:09:31;100028.80;;;6.53;37.50
39954;BME280;25631;51.516;-0.470;2022-12-29T13:12:22;100044.71;;;6.33;37.09
39954;BME280;25631;51.516;-0.470;2022-12-29T13:15:12;100029.56;;;6.70;37.20
39954;BME280;25631;51.516;-0.470;2022-12-29T13:17:58;100033.10;;;6.15;37.17
39954;BME280;25631;51.516;-0.470;2022-12-29T13:20:46;100028.87;;;6.35;36.83
39954;BME280;25631;51.516;-0.470;2022-12-29T13:23:29;100029.43;;;6.76;36.61
39954;BME280;25631;51.516;-0.470;2022-12-29T13:26:14;100025.63;;;6.94;36.74
39954;BME280;25631;51.516;-0.470;2022-12-29T13:29:02;100030.75;;;6.92;36.66
39954;BME280;25631;51.516;-0.470;2022-12-29T13:31:46;100033.09;;;6.81;36.73
39954;BME280;25631;51.516;-0.470;2022-12-29T13:34:36;100036.82;;;6.59;36.39
39954;BME280;25631;51.516;-0.470;2022-12-29T13:37:17;100039.76;;;6.67;35.97
39954;BME280;25631;51.516;-0.470;2022-12-29T13:39:59;100040.43;;;7.10;36.15
39954;BME280;25631;51.516;-0.470;2022-12-29T13:42:37;100043.12;;;7.28;36.30
39954;BME280;25631;51.516;-0.470;2022-12-29T13:45:18;100053.01;;;6.92;36.28
39954;BME280;25631;51.516;-0.470;2022-12-29T13:48:01;100051.52;;;6.92;36.41
39954;BME280;25631;51.516;-0.470;2022-12-29T13:50:40;100046.89;;;7.11;35.95
39954;BME280;25631;51.516;-0.470;2022-12-29T13:53:23;100054.06;;;6.67;36.28
39954;BME280;25631;51.516;-0.470;2022-12-29T13:56:06;100046.40;;;6.18;36.03
39954;BME280;25631;51.516;-0.470;2022-12-29T13:58:49;100044.81;;;6.90;35.79
39954;BME280;25631;51.516;-0.470;2022-12-29T14:01:30;100047.53;;;6.91;36.06
39954;BME280;25631;51.516;-0.470;2022-12-29T14:04:12;100057.84;;;6.84;35.58
39954;BME280;25631;51.516;-0.470;2022-12-29T14:07:00;100046.50;;;7.11;35.73